sensor_id;sensor_type;location;lat;lon;timestamp;temperature;humidity
1083;DHT22;530;51.448;7.238;2022-08-18T00:01:18;18.70;99.90
1083;DHT22;530;51.448;7.238;2022-08-18T00:03:44;18.70;99.90
1083;DHT22;530;51.448;7.238;2022-08-18T00:06:10;18.70;99.90
1083;DHT22;530;51.448;7.238;2022-08-18T00:08:36;18.70;99.90
1083;DHT22;530;51.448;7.238;2022-08-18T00:11:02;18.80;99.90
1083;DHT22;530;51.448;7.238;2022-08-18T00:13:28;18.80;99.90
1083;DHT22;530;51.448;7.238;2022-08-18T00:15:54;18.70;99.90
1083;DHT22;530;51.448;7.238;2022-08-18T00:18:19;18.70;99.90
1083;DHT22;530;51.448;7.238;2022-08-18T00:20:45;18.70;99.90
1083;DHT22;530;51.448;7.238;2022-08-18T00:23:11;18.60;99.90
1083;DHT22;530;51.448;7.238;2022-08-18T00:25:38;18.60;99.90
1083;DHT22;530;51.448;7.238;2022-08-18T00:28:03;18.60;99.90
1083;DHT22;530;51.448;7.238;2022-08-18T00:30:30;18.60;99.90
1083;DHT22;530;51.448;7.238;2022-08-18T00:32:57;18.60;99.90
1083;DHT22;530;51.448;7.238;2022-08-18T00:35:35;18.60;99.90
1083;DHT22;530;51.448;7.238;2022-08-18T00:38:04;18.50;99.90
1083;DHT22;530;51.448;7.238;2022-08-18T00:40:41;18.50;99.90
1083;DHT22;530;51.448;7.238;2022-08-18T00:43:12;18.50;99.90
1083;DHT22;530;51.448;7.238;2022-08-18T00:45:41;18.40;99.90
1083;DHT22;530;51.448;7.238;2022-08-18T00:48:09;18.40;99.90
1083;DHT22;530;51.448;7.238;2022-08-18T00:50:52;18.40;99.90
1083;DHT22;530;51.448;7.238;2022-08-18T00:53:28;18.30;99.90
1083;DHT22;530;51.448;7.238;2022-08-18T00:56:04;18.30;99.90
1083;DHT22;530;51.448;7.238;2022-08-18T00:58:35;18.30;99.90
1083;DHT22;530;51.448;7.238;2022-08-18T01:01:04;18.30;99.90
1083;DHT22;530;51.448;7.238;2022-08-18T01:03:31;18.30;99.90
1083;DHT22;530;51.448;7.238;2022-08-18T01:06:04;18.30;99.90
1083;DHT22;530;51.448;7.238;2022-08-18T01:08:31;18.20;99.90
1083;DHT22;530;51.448;7.238;2022-08-18T01:10:59;18.20;99.90
1083;DHT22;530;51.448;7.238;2022-08-18T01:13:29;18.20;99.90
1083;DHT22;530;51.448;7.238;2022-08-18T01:15:56;18.20;99.90
1083;DHT22;530;51.448;7.238;2022-08-18T01:18:22;18.20;99.90
1083;DHT22;530;51.448;7.238;2022-08-18T01:21:19;18.30;99.90
1083;DHT22;530;51.448;7.238;2022-08-18T01:24:07;18.20;99.90
1083;DHT22;530;51.448;7.238;2022-08-18T01:26:37;18.20;99.90
1083;DHT22;530;51.448;7.238;2022-08-18T01:29:07;18.30;99.90
1083;DHT22;530;51.448;7.238;2022-08-18T01:31:54;18.30;99.90
1083;DHT22;530;51.448;7.238;2022-08-18T01:34:22;18.40;99.90
1083;DHT22;530;51.448;7.238;2022-08-18T01:36:50;18.40;99.90
1083;DHT22;530;51.448;7.238;2022-08-18T01:39:20;18.40;99.90
1083;DHT22;530;51.448;7.238;2022-08-18T01:41:46;18.40;99.90
1083;DHT22;530;51.448;7.238;2022-08-18T01:44:11;18.50;99.90
1083;DHT22;530;51.448;7.238;2022-08-18T01:46:39;18.50;99.90
1083;DHT22;530;51.448;7.238;2022-08-18T01:49:07;18.50;99.90
1083;DHT22;530;51.448;7.238;2022-08-18T01:51:33;18.50;99.90
1083;DHT22;530;51.448;7.238;2022-08-18T01:54:02;18.50;99.90
1083;DHT22;530;51.448;7.238;2022-08-18T01:56:29;18.50;99.90
1083;DHT22;530;51.448;7.238;2022-08-18T01:58:55;18.50;99.90
1083;DHT22;530;51.448;7.238;2022-08-18T02:01:22;18.50;99.90
1083;DHT22;530;51.448;7.238;2022-08-18T02:03:51;18.50;99.90
1083;DHT22;530;51.448;7.238;2022-08-18T02:06:20;18.50;99.90
1083;DHT22;530;51.448;7.238;2022-08-18T02:08:46;18.50;99.90
1083;DHT22;530;51.448;7.238;2022-08-18T02:11:13;18.50;99.90
1083;DHT22;530;51.448;7.238;2022-08-18T02:13:39;18.50;99.90
1083;DHT22;530;51.448;7.238;2022-08-18T02:16:06;18.50;99.90
1083;DHT22;530;51.448;7.238;2022-08-18T02:18:36;18.50;99.90
1083;DHT22;530;51.448;7.238;2022-08-18T02:21:09;18.50;99.90
1083;DHT22;530;51.448;7.238;2022-08-18T02:23:35;18.60;99.90
1083;DHT22;530;51.448;7.238;2022-08-18T02:26:07;18.70;99.90
1083;DHT22;530;51.448;7.238;2022-08-18T02:28:33;18.80;99.90
1083;DHT22;530;51.448;7.238;2022-08-18T02:31:25;18.80;99.90
1083;DHT22;530;51.448;7.238;2022-08-18T02:33:51;18.90;99.90
1083;DHT22;530;51.448;7.238;2022-08-18T02:36:17;19.00;99.90
1083;DHT22;530;51.448;7.238;2022-08-18T02:38:43;19.00;99.90
1083;DHT22;530;51.448;7.238;2022-08-18T02:41:10;19.10;99.90
1083;DHT22;530;51.448;7.238;2022-08-18T02:43:38;19.10;99.90
1083;DHT22;530;51.448;7.238;2022-08-18T02:46:05;19.10;99.90
1083;DHT22;530;51.448;7.238;2022-08-18T02:48:31;19.20;99.90
1083;DHT22;530;51.448;7.238;2022-08-18T02:51:12;19.20;99.90
1083;DHT22;530;51.448;7.238;2022-08-18T02:53:41;19.20;99.90
1083;DHT22;530;51.448;7.238;2022-08-18T02:59:02;19.30;99.90
1083;DHT22;530;51.448;7.238;2022-08-18T03:01:31;19.20;99.90
1083;DHT22;530;51.448;7.238;2022-08-18T03:03:58;19.10;99.90
1083;DHT22;530;51.448;7.238;2022-08-18T03:06:26;19.20;99.90
1083;DHT22;530;51.448;7.238;2022-08-18T03:08:52;19.10;99.90
1083;DHT22;530;51.448;7.238;2022-08-18T03:11:26;19.10;99.90
1083;DHT22;530;51.448;7.238;2022-08-18T03:13:52;19.10;99.90
1083;DHT22;530;51.448;7.238;2022-08-18T03:16:19;19.10;99.90
1083;DHT22;530;51.448;7.238;2022-08-18T03:18:46;19.10;99.90
1083;DHT22;530;51.448;7.238;2022-08-18T03:21:16;19.10;99.90
1083;DHT22;530;51.448;7.238;2022-08-18T03:23:42;19.10;99.90
1083;DHT22;530;51.448;7.238;2022-08-18T03:26:10;19.10;99.90
1083;DHT22;530;51.448;7.238;2022-08-18T03:28:38;19.10;99.90
1083;DHT22;530;51.448;7.238;2022-08-18T03:31:06;19.10;99.90
1083;DHT22;530;51.448;7.238;2022-08-18T03:33:31;19.00;99.90
1083;DHT22;530;51.448;7.238;2022-08-18T03:36:08;19.00;99.90
1083;DHT22;530;51.448;7.238;2022-08-18T03:38:37;19.00;99.90
1083;DHT22;530;51.448;7.238;2022-08-18T03:41:04;19.00;99.90
1083;DHT22;530;51.448;7.238;2022-08-18T03:43:30;19.00;99.90
1083;DHT22;530;51.448;7.238;2022-08-18T03:46:00;19.00;99.90
1083;DHT22;530;51.448;7.238;2022-08-18T03:48:26;19.00;99.90
1083;DHT22;530;51.448;7.238;2022-08-18T03:50:51;19.10;99.90
1083;DHT22;530;51.448;7.238;2022-08-18T03:53:17;19.10;99.90
1083;DHT22;530;51.448;7.238;2022-08-18T03:55:44;19.20;99.90
1083;DHT22;530;51.448;7.238;2022-08-18T03:58:09;19.20;99.90
1083;DHT22;530;51.448;7.238;2022-08-18T04:00:40;19.20;99.90
1083;DHT22;530;51.448;7.238;2022-08-18T04:03:06;19.10;99.90
1083;DHT22;530;51.448;7.238;2022-08-18T04:05:32;19.10;99.90
1083;DHT22;530;51.448;7.238;2022-08-18T04:08:03;19.10;99.90
1083;DHT22;530;51.448;7.238;2022-08-18T04:10:30;19.10;99.90
1083;DHT22;530;51.448;7.238;2022-08-18T04:12:56;19.10;99.90
1083;DHT22;530;51.448;7.238;2022-08-18T04:15:21;19.10;99.90
1083;DHT22;530;51.448;7.238;2022-08-18T04:17:47;19.10;99.90
1083;DHT22;530;51.448;7.238;2022-08-18T04:20:13;19.10;99.90
1083;DHT22;530;51.448;7.238;2022-08-18T04:22:39;19.10;99.90
1083;DHT22;530;51.448;7.238;2022-08-18T04:25:06;19.20;99.90
1083;DHT22;530;51.448;7.238;2022-08-18T04:27:34;19.20;99.90
1083;DHT22;530;51.448;7.238;2022-08-18T04:30:00;19.10;99.90
1083;DHT22;530;51.448;7.238;2022-08-18T04:32:26;19.10;99.90
1083;DHT22;530;51.448;7.238;2022-08-18T04:34:51;19.00;99.90
1083;DHT22;530;51.448;7.238;2022-08-18T04:37:17;19.00;99.90
1083;DHT22;530;51.448;7.238;2022-08-18T04:39:43;19.00;99.90
1083;DHT22;530;51.448;7.238;2022-08-18T04:42:10;19.00;99.90
1083;DHT22;530;51.448;7.238;2022-08-18T04:44:36;19.00;99.90
1083;DHT22;530;51.448;7.238;2022-08-18T04:47:03;19.00;99.90
1083;DHT22;530;51.448;7.238;2022-08-18T04:49:29;19.00;99.90
1083;DHT22;530;51.448;7.238;2022-08-18T04:51:57;18.90;99.90
1083;DHT22;530;51.448;7.238;2022-08-18T04:54:41;18.90;99.90
1083;DHT22;530;51.448;7.238;2022-08-18T04:57:12;18.90;99.90
1083;DHT22;530;51.448;7.238;2022-08-18T04:59:39;18.90;99.90
1083;DHT22;530;51.448;7.238;2022-08-18T05:02:06;18.90;99.90
1083;DHT22;530;51.448;7.238;2022-08-18T05:04:35;18.90;99.90
1083;DHT22;530;51.448;7.238;2022-08-18T05:07:06;18.80;99.90
1083;DHT22;530;51.448;7.238;2022-08-18T05:09:33;18.80;99.90
1083;DHT22;530;51.448;7.238;2022-08-18T05:12:01;18.80;99.90
1083;DHT22;530;51.448;7.238;2022-08-18T05:14:28;18.80;99.90
1083;DHT22;530;51.448;7.238;2022-08-18T05:16:57;18.80;99.90
1083;DHT22;530;51.448;7.238;2022-08-18T05:19:24;18.90;99.90
1083;DHT22;530;51.448;7.238;2022-08-18T05:21:51;18.90;99.90
1083;DHT22;530;51.448;7.238;2022-08-18T05:24:19;18.90;99.90
1083;DHT22;530;51.448;7.238;2022-08-18T05:26:44;18.80;99.90
1083;DHT22;530;51.448;7.238;2022-08-18T05:29:11;18.90;99.90
1083;DHT22;530;51.448;7.238;2022-08-18T05:31:36;18.90;99.90
1083;DHT22;530;51.448;7.238;2022-08-18T05:34:02;18.90;99.90
1083;DHT22;530;51.448;7.238;2022-08-18T05:41:39;19.00;99.90
1083;DHT22;530;51.448;7.238;2022-08-18T05:44:07;19.00;99.90
1083;DHT22;530;51.448;7.238;2022-08-18T05:49:12;19.00;99.90
1083;DHT22;530;51.448;7.238;2022-08-18T05:51:45;19.00;99.90
1083;DHT22;530;51.448;7.238;2022-08-18T05:54:12;19.00;99.90
1083;DHT22;530;51.448;7.238;2022-08-18T05:57:01;19.00;99.90
1083;DHT22;530;51.448;7.238;2022-08-18T05:59:35;19.10;99.90
1083;DHT22;530;51.448;7.238;2022-08-18T06:04:53;19.10;99.90
1083;DHT22;530;51.448;7.238;2022-08-18T06:07:38;19.20;99.90
1083;DHT22;530;51.448;7.238;2022-08-18T06:10:06;19.30;99.90
1083;DHT22;530;51.448;7.238;2022-08-18T06:12:39;19.20;99.90
1083;DHT22;530;51.448;7.238;2022-08-18T06:15:15;19.20;99.90
1083;DHT22;530;51.448;7.238;2022-08-18T06:20:27;19.20;99.90
1083;DHT22;530;51.448;7.238;2022-08-18T06:26:24;19.30;99.90
1083;DHT22;530;51.448;7.238;2022-08-18T06:35:43;19.40;99.90
1083;DHT22;530;51.448;7.238;2022-08-18T06:38:22;19.50;99.90
1083;DHT22;530;51.448;7.238;2022-08-18T06:41:16;19.40;99.90
1083;DHT22;530;51.448;7.238;2022-08-18T06:43:57;19.40;99.90
1083;DHT22;530;51.448;7.238;2022-08-18T06:46:39;19.40;99.90
1083;DHT22;530;51.448;7.238;2022-08-18T06:49:11;19.40;99.90
1083;DHT22;530;51.448;7.238;2022-08-18T06:51:39;19.40;99.90
1083;DHT22;530;51.448;7.238;2022-08-18T06:54:07;19.40;99.90
1083;DHT22;530;51.448;7.238;2022-08-18T06:56:51;19.40;99.90
1083;DHT22;530;51.448;7.238;2022-08-18T07:01:49;19.40;99.90
1083;DHT22;530;51.448;7.238;2022-08-18T07:07:14;19.40;99.90
1083;DHT22;530;51.448;7.238;2022-08-18T07:09:40;19.50;99.90
1083;DHT22;530;51.448;7.238;2022-08-18T07:12:08;19.50;99.90
1083;DHT22;530;51.448;7.238;2022-08-18T07:14:46;19.50;99.90
1083;DHT22;530;51.448;7.238;2022-08-18T07:17:20;19.50;99.90
1083;DHT22;530;51.448;7.238;2022-08-18T07:19:55;19.50;99.90
1083;DHT22;530;51.448;7.238;2022-08-18T07:22:21;19.50;99.90
1083;DHT22;530;51.448;7.238;2022-08-18T07:24:49;19.50;99.90
1083;DHT22;530;51.448;7.238;2022-08-18T07:27:21;19.50;99.90
1083;DHT22;530;51.448;7.238;2022-08-18T07:32:44;19.50;99.90
1083;DHT22;530;51.448;7.238;2022-08-18T07:35:15;19.50;99.90
1083;DHT22;530;51.448;7.238;2022-08-18T07:37:53;19.50;99.90
1083;DHT22;530;51.448;7.238;2022-08-18T07:43:07;19.50;99.90
1083;DHT22;530;51.448;7.238;2022-08-18T07:45:40;19.50;99.90
1083;DHT22;530;51.448;7.238;2022-08-18T07:53:50;19.50;99.90
1083;DHT22;530;51.448;7.238;2022-08-18T07:59:26;19.60;99.90
1083;DHT22;530;51.448;7.238;2022-08-18T08:07:40;19.50;99.90
1083;DHT22;530;51.448;7.238;2022-08-18T08:10:29;19.50;99.90
1083;DHT22;530;51.448;7.238;2022-08-18T08:13:22;19.50;99.90
1083;DHT22;530;51.448;7.238;2022-08-18T08:16:03;19.50;99.90
1083;DHT22;530;51.448;7.238;2022-08-18T08:21:17;19.50;99.90
1083;DHT22;530;51.448;7.238;2022-08-18T08:29:54;19.70;99.90
1083;DHT22;530;51.448;7.238;2022-08-18T08:36:02;19.90;99.90
1083;DHT22;530;51.448;7.238;2022-08-18T08:41:07;20.20;99.90
1083;DHT22;530;51.448;7.238;2022-08-18T08:43:41;20.20;99.90
1083;DHT22;530;51.448;7.238;2022-08-18T08:46:22;20.30;99.90
1083;DHT22;530;51.448;7.238;2022-08-18T08:49:00;20.40;99.90
1083;DHT22;530;51.448;7.238;2022-08-18T08:51:49;20.40;99.90
1083;DHT22;530;51.448;7.238;2022-08-18T08:54:25;20.60;99.90
1083;DHT22;530;51.448;7.238;2022-08-18T08:56:54;20.60;99.90
1083;DHT22;530;51.448;7.238;2022-08-18T08:59:22;20.70;99.90
1083;DHT22;530;51.448;7.238;2022-08-18T09:07:16;20.80;99.90
1083;DHT22;530;51.448;7.238;2022-08-18T09:18:21;21.00;99.90
1083;DHT22;530;51.448;7.238;2022-08-18T09:23:39;21.00;99.90
1083;DHT22;530;51.448;7.238;2022-08-18T09:29:15;21.20;99.90
1083;DHT22;530;51.448;7.238;2022-08-18T09:31:44;21.30;99.90
1083;DHT22;530;51.448;7.238;2022-08-18T09:37:16;21.40;99.90
1083;DHT22;530;51.448;7.238;2022-08-18T09:40:22;21.40;99.90
1083;DHT22;530;51.448;7.238;2022-08-18T09:43:37;21.40;99.90
1083;DHT22;530;51.448;7.238;2022-08-18T09:46:05;21.40;99.90
1083;DHT22;530;51.448;7.238;2022-08-18T09:48:37;21.50;99.90
1083;DHT22;530;51.448;7.238;2022-08-18T09:56:17;21.70;99.90
1083;DHT22;530;51.448;7.238;2022-08-18T09:59:01;21.70;99.90
1083;DHT22;530;51.448;7.238;2022-08-18T10:06:40;21.60;99.90
1083;DHT22;530;51.448;7.238;2022-08-18T10:12:17;21.60;99.90
1083;DHT22;530;51.448;7.238;2022-08-18T10:20:19;21.60;99.90
1083;DHT22;530;51.448;7.238;2022-08-18T10:22:48;21.60;99.90
1083;DHT22;530;51.448;7.238;2022-08-18T10:25:35;21.60;99.90
1083;DHT22;530;51.448;7.238;2022-08-18T10:28:01;21.60;99.90
1083;DHT22;530;51.448;7.238;2022-08-18T10:36:39;21.60;99.90
1083;DHT22;530;51.448;7.238;2022-08-18T10:39:10;21.70;99.90
1083;DHT22;530;51.448;7.238;2022-08-18T10:41:37;21.70;99.90
1083;DHT22;530;51.448;7.238;2022-08-18T10:44:14;21.80;99.90
1083;DHT22;530;51.448;7.238;2022-08-18T10:46:41;21.80;99.90
1083;DHT22;530;51.448;7.238;2022-08-18T10:51:56;21.90;99.90
1083;DHT22;530;51.448;7.238;2022-08-18T10:57:14;22.00;99.90
1083;DHT22;530;51.448;7.238;2022-08-18T10:59:50;22.10;99.90
1083;DHT22;530;51.448;7.238;2022-08-18T11:02:40;22.20;99.90
1083;DHT22;530;51.448;7.238;2022-08-18T11:05:11;22.10;99.90
1083;DHT22;530;51.448;7.238;2022-08-18T11:07:40;22.20;99.90
1083;DHT22;530;51.448;7.238;2022-08-18T11:10:32;22.30;99.90
1083;DHT22;530;51.448;7.238;2022-08-18T11:13:12;22.30;99.90
1083;DHT22;530;51.448;7.238;2022-08-18T11:16:06;22.40;99.90
1083;DHT22;530;51.448;7.238;2022-08-18T11:18:46;22.50;99.90
1083;DHT22;530;51.448;7.238;2022-08-18T11:21:42;22.50;99.90
1083;DHT22;530;51.448;7.238;2022-08-18T11:24:15;22.50;99.90
1083;DHT22;530;51.448;7.238;2022-08-18T11:26:50;22.60;99.90
1083;DHT22;530;51.448;7.238;2022-08-18T11:29:19;22.60;99.90
1083;DHT22;530;51.448;7.238;2022-08-18T11:31:49;22.70;99.90
1083;DHT22;530;51.448;7.238;2022-08-18T11:34:21;22.70;99.90
1083;DHT22;530;51.448;7.238;2022-08-18T11:37:01;22.70;99.90
1083;DHT22;530;51.448;7.238;2022-08-18T11:39:29;22.80;99.90
1083;DHT22;530;51.448;7.238;2022-08-18T11:41:56;22.80;99.90
1083;DHT22;530;51.448;7.238;2022-08-18T11:44:28;22.80;99.90
1083;DHT22;530;51.448;7.238;2022-08-18T11:47:12;22.80;99.90
1083;DHT22;530;51.448;7.238;2022-08-18T11:49:55;22.90;99.90
1083;DHT22;530;51.448;7.238;2022-08-18T11:52:30;22.80;99.90
1083;DHT22;530;51.448;7.238;2022-08-18T11:55:00;22.80;99.90
1083;DHT22;530;51.448;7.238;2022-08-18T11:57:40;22.70;99.90
1083;DHT22;530;51.448;7.238;2022-08-18T12:03:07;22.70;99.90
1083;DHT22;530;51.448;7.238;2022-08-18T12:08:35;22.60;99.90
1083;DHT22;530;51.448;7.238;2022-08-18T12:13:30;22.60;99.90
1083;DHT22;530;51.448;7.238;2022-08-18T12:16:12;22.50;99.90
1083;DHT22;530;51.448;7.238;2022-08-18T12:18:38;22.50;99.90
1083;DHT22;530;51.448;7.238;2022-08-18T12:21:05;22.50;99.90
1083;DHT22;530;51.448;7.238;2022-08-18T12:23:32;22.50;99.90
1083;DHT22;530;51.448;7.238;2022-08-18T12:25:59;22.50;99.90
1083;DHT22;530;51.448;7.238;2022-08-18T12:28:24;22.50;99.90
1083;DHT22;530;51.448;7.238;2022-08-18T12:30:51;22.50;99.90
1083;DHT22;530;51.448;7.238;2022-08-18T12:33:18;22.50;99.90
1083;DHT22;530;51.448;7.238;2022-08-18T12:35:44;22.60;99.90
1083;DHT22;530;51.448;7.238;2022-08-18T12:38:10;22.60;99.90
1083;DHT22;530;51.448;7.238;2022-08-18T12:40:37;22.60;99.90
1083;DHT22;530;51.448;7.238;2022-08-18T12:43:02;22.60;99.90
1083;DHT22;530;51.448;7.238;2022-08-18T12:45:28;22.60;99.90
1083;DHT22;530;51.448;7.238;2022-08-18T12:47:55;22.60;99.90
1083;DHT22;530;51.448;7.238;2022-08-18T12:50:21;22.60;99.90
1083;DHT22;530;51.448;7.238;2022-08-18T12:52:47;22.60;99.90
1083;DHT22;530;51.448;7.238;2022-08-18T12:55:13;22.70;99.90
1083;DHT22;530;51.448;7.238;2022-08-18T12:57:39;22.70;99.90
1083;DHT22;530;51.448;7.238;2022-08-18T13:00:05;22.80;99.90
1083;DHT22;530;51.448;7.238;2022-08-18T13:02:33;22.80;99.90
1083;DHT22;530;51.448;7.238;2022-08-18T13:04:59;23.00;99.90
1083;DHT22;530;51.448;7.238;2022-08-18T13:07:24;23.00;99.90
1083;DHT22;530;51.448;7.238;2022-08-18T13:09:50;23.00;99.90
1083;DHT22;530;51.448;7.238;2022-08-18T13:12:16;23.10;99.90
1083;DHT22;530;51.448;7.238;2022-08-18T13:14:44;23.30;99.90
1083;DHT22;530;51.448;7.238;2022-08-18T13:17:11;23.30;99.90
1083;DHT22;530;51.448;7.238;2022-08-18T13:19:37;23.40;99.90
1083;DHT22;530;51.448;7.238;2022-08-18T13:22:03;23.50;99.90
1083;DHT22;530;51.448;7.238;2022-08-18T13:24:29;23.60;99.90
1083;DHT22;530;51.448;7.238;2022-08-18T13:26:54;23.70;99.90
1083;DHT22;530;51.448;7.238;2022-08-18T13:29:20;23.70;99.90
1083;DHT22;530;51.448;7.238;2022-08-18T13:31:46;23.70;99.90
1083;DHT22;530;51.448;7.238;2022-08-18T13:34:12;23.70;99.90
1083;DHT22;530;51.448;7.238;2022-08-18T13:36:38;23.70;99.90
1083;DHT22;530;51.448;7.238;2022-08-18T13:39:21;23.80;99.90
1083;DHT22;530;51.448;7.238;2022-08-18T13:41:49;23.80;99.90
1083;DHT22;530;51.448;7.238;2022-08-18T13:44:17;23.90;99.90
1083;DHT22;530;51.448;7.238;2022-08-18T13:46:44;23.90;99.90
1083;DHT22;530;51.448;7.238;2022-08-18T13:49:15;23.90;99.90
1083;DHT22;530;51.448;7.238;2022-08-18T13:51:42;23.90;99.90
1083;DHT22;530;51.448;7.238;2022-08-18T13:54:09;24.00;99.90
1083;DHT22;530;51.448;7.238;2022-08-18T13:56:37;24.10;99.90
1083;DHT22;530;51.448;7.238;2022-08-18T13:59:02;24.10;99.90
1083;DHT22;530;51.448;7.238;2022-08-18T14:01:30;24.10;99.90
1083;DHT22;530;51.448;7.238;2022-08-18T14:03:56;24.10;99.90
1083;DHT22;530;51.448;7.238;2022-08-18T14:06:22;24.20;99.90
1083;DHT22;530;51.448;7.238;2022-08-18T14:08:48;24.30;99.90
1083;DHT22;530;51.448;7.238;2022-08-18T14:11:14;24.40;99.90
1083;DHT22;530;51.448;7.238;2022-08-18T14:13:40;24.40;99.90
1083;DHT22;530;51.448;7.238;2022-08-18T14:16:06;24.40;99.90
1083;DHT22;530;51.448;7.238;2022-08-18T14:18:32;24.50;99.90
1083;DHT22;530;51.448;7.238;2022-08-18T14:20:58;24.50;99.90
1083;DHT22;530;51.448;7.238;2022-08-18T14:23:42;24.60;99.90
1083;DHT22;530;51.448;7.238;2022-08-18T14:26:27;24.70;99.90
1083;DHT22;530;51.448;7.238;2022-08-18T14:29:11;24.60;99.90
1083;DHT22;530;51.448;7.238;2022-08-18T14:31:37;24.50;99.90
1083;DHT22;530;51.448;7.238;2022-08-18T14:34:02;24.50;99.90
1083;DHT22;530;51.448;7.238;2022-08-18T14:36:28;24.50;99.90
1083;DHT22;530;51.448;7.238;2022-08-18T14:38:54;24.50;99.90
1083;DHT22;530;51.448;7.238;2022-08-18T14:41:20;24.50;99.90
1083;DHT22;530;51.448;7.238;2022-08-18T14:43:45;24.40;99.90
1083;DHT22;530;51.448;7.238;2022-08-18T14:46:11;24.30;99.90
1083;DHT22;530;51.448;7.238;2022-08-18T14:48:38;24.30;99.90
1083;DHT22;530;51.448;7.238;2022-08-18T14:51:05;24.30;99.90
1083;DHT22;530;51.448;7.238;2022-08-18T14:53:32;24.30;99.90
1083;DHT22;530;51.448;7.238;2022-08-18T14:55:59;24.40;99.90
1083;DHT22;530;51.448;7.238;2022-08-18T14:58:28;24.50;99.90
1083;DHT22;530;51.448;7.238;2022-08-18T15:01:00;24.60;99.90
1083;DHT22;530;51.448;7.238;2022-08-18T15:03:28;24.70;99.90
1083;DHT22;530;51.448;7.238;2022-08-18T15:05:55;24.80;99.90
1083;DHT22;530;51.448;7.238;2022-08-18T15:08:22;24.80;99.90
1083;DHT22;530;51.448;7.238;2022-08-18T15:10:48;25.00;99.90
1083;DHT22;530;51.448;7.238;2022-08-18T15:13:14;25.00;99.90
1083;DHT22;530;51.448;7.238;2022-08-18T15:15:41;25.00;99.90
1083;DHT22;530;51.448;7.238;2022-08-18T15:18:09;25.00;99.90
1083;DHT22;530;51.448;7.238;2022-08-18T15:20:35;25.00;99.90
1083;DHT22;530;51.448;7.238;2022-08-18T15:23:24;25.10;99.90
1083;DHT22;530;51.448;7.238;2022-08-18T15:26:09;25.10;99.90
1083;DHT22;530;51.448;7.238;2022-08-18T15:28:35;25.10;99.90
1083;DHT22;530;51.448;7.238;2022-08-18T15:31:03;25.10;99.90
1083;DHT22;530;51.448;7.238;2022-08-18T15:33:29;25.10;99.90
1083;DHT22;530;51.448;7.238;2022-08-18T15:35:54;25.10;99.90
1083;DHT22;530;51.448;7.238;2022-08-18T15:38:22;25.10;99.90
1083;DHT22;530;51.448;7.238;2022-08-18T15:40:59;25.10;99.90
1083;DHT22;530;51.448;7.238;2022-08-18T15:43:27;25.10;99.90
1083;DHT22;530;51.448;7.238;2022-08-18T15:45:53;25.00;99.90
1083;DHT22;530;51.448;7.238;2022-08-18T15:48:21;25.00;99.90
1083;DHT22;530;51.448;7.238;2022-08-18T15:50:48;25.00;99.90
1083;DHT22;530;51.448;7.238;2022-08-18T15:53:20;24.90;99.90
1083;DHT22;530;51.448;7.238;2022-08-18T15:55:46;24.80;99.90
1083;DHT22;530;51.448;7.238;2022-08-18T15:58:13;24.80;99.90
1083;DHT22;530;51.448;7.238;2022-08-18T16:00:43;24.80;99.90
1083;DHT22;530;51.448;7.238;2022-08-18T16:03:11;24.80;99.90
1083;DHT22;530;51.448;7.238;2022-08-18T16:05:44;24.70;99.90
1083;DHT22;530;51.448;7.238;2022-08-18T16:08:10;24.60;99.90
1083;DHT22;530;51.448;7.238;2022-08-18T16:10:38;24.60;99.90
1083;DHT22;530;51.448;7.238;2022-08-18T16:13:04;24.50;99.90
1083;DHT22;530;51.448;7.238;2022-08-18T16:15:35;24.50;99.90
1083;DHT22;530;51.448;7.238;2022-08-18T16:18:03;24.60;99.90
1083;DHT22;530;51.448;7.238;2022-08-18T16:20:29;24.60;99.90
1083;DHT22;530;51.448;7.238;2022-08-18T16:22:56;24.70;99.90
1083;DHT22;530;51.448;7.238;2022-08-18T16:25:25;24.80;99.90
1083;DHT22;530;51.448;7.238;2022-08-18T16:27:51;24.80;99.90
1083;DHT22;530;51.448;7.238;2022-08-18T16:30:22;24.70;99.90
1083;DHT22;530;51.448;7.238;2022-08-18T16:32:49;24.80;99.90
1083;DHT22;530;51.448;7.238;2022-08-18T16:35:15;24.80;99.90
1083;DHT22;530;51.448;7.238;2022-08-18T16:37:44;24.80;99.90
1083;DHT22;530;51.448;7.238;2022-08-18T16:40:15;24.70;99.90
1083;DHT22;530;51.448;7.238;2022-08-18T16:42:41;24.70;99.90
1083;DHT22;530;51.448;7.238;2022-08-18T16:45:07;24.80;99.90
1083;DHT22;530;51.448;7.238;2022-08-18T16:47:34;24.70;99.90
1083;DHT22;530;51.448;7.238;2022-08-18T16:50:11;24.70;99.90
1083;DHT22;530;51.448;7.238;2022-08-18T16:52:38;24.60;99.90
1083;DHT22;530;51.448;7.238;2022-08-18T16:55:06;24.70;99.90
1083;DHT22;530;51.448;7.238;2022-08-18T16:57:32;24.60;99.90
1083;DHT22;530;51.448;7.238;2022-08-18T17:00:16;24.60;99.90
1083;DHT22;530;51.448;7.238;2022-08-18T17:03:07;24.70;99.90
1083;DHT22;530;51.448;7.238;2022-08-18T17:06:09;24.70;99.90
1083;DHT22;530;51.448;7.238;2022-08-18T17:08:35;24.70;99.90
1083;DHT22;530;51.448;7.238;2022-08-18T17:11:03;24.70;99.90
1083;DHT22;530;51.448;7.238;2022-08-18T17:13:30;24.70;99.90
1083;DHT22;530;51.448;7.238;2022-08-18T17:15:56;24.80;99.90
1083;DHT22;530;51.448;7.238;2022-08-18T17:18:22;24.80;99.90
1083;DHT22;530;51.448;7.238;2022-08-18T17:20:51;24.80;99.90
1083;DHT22;530;51.448;7.238;2022-08-18T17:23:18;24.80;99.90
1083;DHT22;530;51.448;7.238;2022-08-18T17:25:44;24.80;99.90
1083;DHT22;530;51.448;7.238;2022-08-18T17:28:12;24.70;99.90
1083;DHT22;530;51.448;7.238;2022-08-18T17:30:43;24.80;99.90
1083;DHT22;530;51.448;7.238;2022-08-18T17:33:28;24.70;99.90
1083;DHT22;530;51.448;7.238;2022-08-18T17:35:59;24.80;99.90
1083;DHT22;530;51.448;7.238;2022-08-18T17:38:48;24.80;99.90
1083;DHT22;530;51.448;7.238;2022-08-18T17:41:17;24.80;99.90
1083;DHT22;530;51.448;7.238;2022-08-18T17:43:45;24.70;99.90
1083;DHT22;530;51.448;7.238;2022-08-18T17:46:18;24.70;99.90
1083;DHT22;530;51.448;7.238;2022-08-18T17:49:22;24.70;99.90
1083;DHT22;530;51.448;7.238;2022-08-18T17:52:09;24.60;99.90
1083;DHT22;530;51.448;7.238;2022-08-18T17:54:39;24.60;99.90
1083;DHT22;530;51.448;7.238;2022-08-18T17:57:28;24.60;99.90
1083;DHT22;530;51.448;7.238;2022-08-18T18:02:38;24.50;99.90
1083;DHT22;530;51.448;7.238;2022-08-18T18:05:08;24.50;99.90
1083;DHT22;530;51.448;7.238;2022-08-18T18:07:38;24.50;99.90
1083;DHT22;530;51.448;7.238;2022-08-18T18:10:36;24.40;99.90
1083;DHT22;530;51.448;7.238;2022-08-18T18:15:51;24.40;99.90
1083;DHT22;530;51.448;7.238;2022-08-18T18:20:59;24.30;99.90
1083;DHT22;530;51.448;7.238;2022-08-18T18:23:29;24.20;99.90
1083;DHT22;530;51.448;7.238;2022-08-18T18:25:55;24.10;99.90
1083;DHT22;530;51.448;7.238;2022-08-18T18:28:34;24.10;99.90
1083;DHT22;530;51.448;7.238;2022-08-18T18:31:35;24.00;99.90
1083;DHT22;530;51.448;7.238;2022-08-18T18:34:15;24.00;99.90
1083;DHT22;530;51.448;7.238;2022-08-18T18:36:45;24.00;99.90
1083;DHT22;530;51.448;7.238;2022-08-18T18:39:22;23.90;99.90
1083;DHT22;530;51.448;7.238;2022-08-18T18:41:50;23.90;99.90
1083;DHT22;530;51.448;7.238;2022-08-18T18:44:26;23.80;99.90
1083;DHT22;530;51.448;7.238;2022-08-18T18:49:56;23.70;99.90
1083;DHT22;530;51.448;7.238;2022-08-18T18:52:36;23.60;99.90
1083;DHT22;530;51.448;7.238;2022-08-18T18:55:18;23.60;99.90
1083;DHT22;530;51.448;7.238;2022-08-18T19:08:49;23.10;99.90
1083;DHT22;530;51.448;7.238;2022-08-18T19:14:15;22.80;99.90